Terminal Aerodrome Forecast
Issued by NWS Sterling, VA

Current Version | Previous Version | Text Only | Print | Product List | Glossary Off
Versions: 1 2 3 4 5 6 7 8 9 10 11 12 13 14 15 16 17 18 19 20 21 22 23 24 25 26 27 28

000
FTUS41 KLWX 291121
TAFDCA
TAF
KDCA 291121Z 2912/3012 36008KT P6SM BKN025
     FM291300 35009G15KT P6SM SCT035
     FM291500 35009G15KT P6SM FEW040
     FM300000 02005KT P6SM FEW050=

USA.gov is the U.S. government's official web portal to all federal, state and local government web resources and services.